createdAt,value
2024-03-17T00:00:43.159Z,5.608
2024-03-17T00:01:43.068Z,5.488
2024-03-17T00:02:43.070Z,5.488
2024-03-17T00:03:43.089Z,5.488
2024-03-17T00:04:43.084Z,5.432
2024-03-17T00:05:43.100Z,5.432
2024-03-17T00:06:43.103Z,5.497
2024-03-17T00:07:43.112Z,5.497
2024-03-17T00:08:43.138Z,5.497
2024-03-17T00:09:43.138Z,5.497
2024-03-17T00:10:43.149Z,5.392
2024-03-17T00:11:43.181Z,5.392
2024-03-17T00:12:43.178Z,5.392
2024-03-17T00:13:43.190Z,5.392
2024-03-17T00:14:43.237Z,5.309
2024-03-17T00:15:43.202Z,5.299
2024-03-17T00:16:43.197Z,5.299
2024-03-17T00:17:43.251Z,5.299
2024-03-17T00:18:43.208Z,5.299
2024-03-17T00:19:43.215Z,5.299
2024-03-17T00:20:43.227Z,5.339
2024-03-17T00:21:43.236Z,5.339
2024-03-17T00:22:43.260Z,5.339
2024-03-17T00:23:43.257Z,5.339
2024-03-17T00:24:43.266Z,5.339
2024-03-17T00:25:43.276Z,5.324
2024-03-17T00:26:43.285Z,5.324
2024-03-17T00:27:43.308Z,5.324
2024-03-17T00:28:43.299Z,5.324
2024-03-17T00:29:43.296Z,5.324
2024-03-17T00:30:43.307Z,5.429
2024-03-17T00:31:43.307Z,5.457
2024-03-17T00:32:43.322Z,5.457
2024-03-17T00:33:43.345Z,5.457
2024-03-17T00:34:43.350Z,5.457
2024-03-17T00:35:43.370Z,5.517
2024-03-17T00:36:43.388Z,5.517
2024-03-17T00:37:43.391Z,5.517
2024-03-17T00:38:43.419Z,5.517
2024-03-17T00:39:43.449Z,5.517
2024-03-17T00:40:43.420Z,5.560
2024-03-17T00:41:43.443Z,5.588
2024-03-17T00:42:43.433Z,5.588
2024-03-17T00:43:43.437Z,5.588
2024-03-17T00:44:43.442Z,5.588
2024-03-17T00:45:43.474Z,5.608
2024-03-17T00:46:43.463Z,5.608
2024-03-17T00:47:43.480Z,5.608
2024-03-17T00:48:43.500Z,5.608
2024-03-17T00:49:43.520Z,5.608
2024-03-17T00:50:43.521Z,5.593
2024-03-17T00:51:43.533Z,5.593
2024-03-17T00:52:43.539Z,5.620
2024-03-17T00:53:43.541Z,5.649
2024-03-17T00:54:43.554Z,5.620
2024-03-17T00:55:43.556Z,5.708
2024-03-17T00:56:43.558Z,5.708
2024-03-17T00:57:43.562Z,5.708
2024-03-17T00:58:43.581Z,5.708
2024-03-17T00:59:43.602Z,5.708
2024-03-17T01:00:43.597Z,5.748
2024-03-17T01:01:43.605Z,5.748
2024-03-17T01:02:43.638Z,5.748
2024-03-17T01:03:43.632Z,5.748
2024-03-17T01:04:43.649Z,5.748
2024-03-17T01:05:43.652Z,5.733
2024-03-17T01:06:43.649Z,5.733
2024-03-17T01:07:43.651Z,5.733
2024-03-17T01:08:43.653Z,5.733
2024-03-17T01:09:43.661Z,5.733
2024-03-17T01:10:43.660Z,5.733
2024-03-17T01:11:43.676Z,5.789
2024-03-17T01:12:43.686Z,5.789
2024-03-17T01:13:43.896Z,5.816
2024-03-17T01:14:43.699Z,5.816
2024-03-17T01:15:43.705Z,5.822
2024-03-17T01:16:43.730Z,5.822
2024-03-17T01:17:43.743Z,5.822
2024-03-17T01:18:43.859Z,5.822
2024-03-17T01:19:43.740Z,5.822
2024-03-17T01:20:43.743Z,5.841
2024-03-17T01:21:43.750Z,5.841
2024-03-17T01:22:43.758Z,5.841
2024-03-17T01:23:43.767Z,5.841
2024-03-17T01:24:43.780Z,5.841
2024-03-17T01:25:43.794Z,5.832
2024-03-17T01:26:43.805Z,5.832
2024-03-17T01:27:43.819Z,5.832
2024-03-17T01:28:43.817Z,5.832
2024-03-17T01:29:43.826Z,5.832
2024-03-17T01:30:43.833Z,5.822
2024-03-17T01:31:43.840Z,5.822
2024-03-17T01:32:43.861Z,5.822
2024-03-17T01:33:43.851Z,5.822
2024-03-17T01:34:43.853Z,5.822
2024-03-17T01:35:43.872Z,5.841
2024-03-17T01:36:43.881Z,5.841
2024-03-17T01:37:43.895Z,5.841
2024-03-17T01:38:43.901Z,5.841
2024-03-17T01:39:43.921Z,5.870
2024-03-17T01:40:43.930Z,5.920
2024-03-17T01:41:43.942Z,5.920
2024-03-17T01:42:43.945Z,5.920
2024-03-17T01:43:43.955Z,5.947
2024-03-17T01:44:43.956Z,5.947
2024-03-17T01:45:43.964Z,5.892
2024-03-17T01:46:43.968Z,5.892
2024-03-17T01:47:43.968Z,5.892
2024-03-17T01:48:43.982Z,5.920
2024-03-17T01:49:44.001Z,5.892
2024-03-17T01:50:44.024Z,5.927
2024-03-17T01:51:44.026Z,5.927
2024-03-17T01:52:44.042Z,5.927
2024-03-17T01:53:44.044Z,5.927
2024-03-17T01:54:44.053Z,5.927
2024-03-17T01:55:44.074Z,5.962
2024-03-17T01:56:44.069Z,5.962
2024-03-17T01:57:44.073Z,5.962
2024-03-17T01:58:44.072Z,5.962
2024-03-17T01:59:44.074Z,5.962
2024-03-17T02:00:44.085Z,5.937
2024-03-17T02:01:44.098Z,5.937
2024-03-17T02:02:44.107Z,5.937
2024-03-17T02:03:44.117Z,5.937
2024-03-17T02:04:44.145Z,5.937
2024-03-17T02:05:44.143Z,5.947
2024-03-17T02:06:44.164Z,5.947
2024-03-17T02:07:44.151Z,5.947
2024-03-17T02:08:44.160Z,5.947
2024-03-17T02:09:44.181Z,5.947
2024-03-17T02:10:44.169Z,5.967
2024-03-17T02:11:44.176Z,5.967
2024-03-17T02:12:44.180Z,5.967
2024-03-17T02:13:44.194Z,5.967
2024-03-17T02:14:44.199Z,5.967
2024-03-17T02:15:44.218Z,5.892
2024-03-17T02:16:44.233Z,5.892
2024-03-17T02:17:44.225Z,5.892
2024-03-17T02:18:44.234Z,5.892
2024-03-17T02:19:44.245Z,5.892
2024-03-17T02:20:44.251Z,5.887
2024-03-17T02:21:44.258Z,5.887
2024-03-17T02:22:44.265Z,5.887
2024-03-17T02:23:44.263Z,5.887
2024-03-17T02:24:44.267Z,5.887
2024-03-17T02:25:44.280Z,5.872
2024-03-17T02:26:44.288Z,5.872
2024-03-17T02:27:44.317Z,5.872
2024-03-17T02:28:44.322Z,5.872
2024-03-17T02:29:44.328Z,5.872
2024-03-17T02:30:44.338Z,5.857
2024-03-17T02:31:44.350Z,5.857
2024-03-17T02:32:44.367Z,5.857
2024-03-17T02:33:44.364Z,5.857
2024-03-17T02:34:44.360Z,5.857
2024-03-17T02:35:44.371Z,5.872
2024-03-17T02:36:44.379Z,5.872
2024-03-17T02:37:44.390Z,5.872
2024-03-17T02:38:44.401Z,5.816
2024-03-17T02:39:44.410Z,5.845
2024-03-17T02:40:44.419Z,5.829
2024-03-17T02:41:44.435Z,5.801
2024-03-17T02:42:44.440Z,5.829
2024-03-17T02:43:44.446Z,5.801
2024-03-17T02:44:44.451Z,5.801
2024-03-17T02:45:44.469Z,5.806
2024-03-17T02:46:44.473Z,5.806
2024-03-17T02:47:44.469Z,5.806
2024-03-17T02:48:44.473Z,5.806
2024-03-17T02:49:44.483Z,5.806
2024-03-17T02:50:44.498Z,5.747
2024-03-17T02:51:44.514Z,5.747
2024-03-17T02:52:44.530Z,5.747
2024-03-17T02:53:44.541Z,5.747
2024-03-17T02:54:53.397Z,5.747
2024-03-17T02:55:44.565Z,5.767
2024-03-17T02:56:44.567Z,5.767
2024-03-17T02:57:44.576Z,5.767
2024-03-17T02:58:44.580Z,5.767
2024-03-17T02:59:44.578Z,5.767
2024-03-17T03:00:44.605Z,5.712
2024-03-17T03:01:44.598Z,5.712
2024-03-17T03:02:44.599Z,5.712
2024-03-17T03:03:44.612Z,5.712
2024-03-17T03:04:44.618Z,5.712
2024-03-17T03:05:44.628Z,5.538
2024-03-17T03:06:44.637Z,5.538
2024-03-17T03:07:44.649Z,5.538
2024-03-17T03:08:44.677Z,5.538
2024-03-17T03:09:44.665Z,5.538
2024-03-17T03:10:44.712Z,5.553
2024-03-17T03:11:44.681Z,5.553
2024-03-17T03:12:44.688Z,5.553
2024-03-17T03:13:44.689Z,5.526
2024-03-17T03:14:44.690Z,5.388
2024-03-17T03:15:44.704Z,5.388
2024-03-17T03:16:44.717Z,5.388
2024-03-17T03:17:44.739Z,5.388
2024-03-17T03:18:44.748Z,5.388
2024-03-17T03:19:44.745Z,5.398
2024-03-17T03:20:44.746Z,5.398
2024-03-17T03:21:44.789Z,5.398
2024-03-17T03:22:44.773Z,5.398
2024-03-17T03:23:44.782Z,5.425
2024-03-17T03:24:44.779Z,5.239
2024-03-17T03:25:46.688Z,5.239
2024-03-17T03:26:44.786Z,5.267
2024-03-17T03:27:44.792Z,5.267
2024-03-17T03:28:44.830Z,5.267
2024-03-17T03:29:44.821Z,5.247
2024-03-17T03:30:44.831Z,5.247
2024-03-17T03:31:44.843Z,5.220
2024-03-17T03:32:44.856Z,5.164
2024-03-17T03:33:44.861Z,5.164
2024-03-17T03:34:44.870Z,5.124
2024-03-17T03:35:44.877Z,5.124
2024-03-17T03:36:44.875Z,5.124
2024-03-17T03:37:44.916Z,5.124
2024-03-17T03:38:44.893Z,5.124
2024-03-17T03:39:44.893Z,5.119
2024-03-17T03:40:44.907Z,5.119
2024-03-17T03:41:44.910Z,5.091
2024-03-17T03:42:44.932Z,5.035
2024-03-17T03:43:44.935Z,5.035
2024-03-17T03:44:44.940Z,4.981
2024-03-17T03:45:44.948Z,4.981
2024-03-17T03:46:44.960Z,5.008
2024-03-17T03:47:44.969Z,5.008
2024-03-17T03:48:44.973Z,5.008
2024-03-17T03:49:44.976Z,4.898
2024-03-17T03:50:44.993Z,4.898
2024-03-17T03:51:45.003Z,4.898
2024-03-17T03:52:44.999Z,4.898
2024-03-17T03:53:45.008Z,4.898
2024-03-17T03:54:45.015Z,4.769
2024-03-17T03:55:45.034Z,4.769
2024-03-17T03:56:45.062Z,4.769
2024-03-17T03:57:45.048Z,4.769
2024-03-17T03:58:45.078Z,4.769
2024-03-17T03:59:45.070Z,4.710
2024-03-17T04:00:45.069Z,4.654
2024-03-17T04:01:45.083Z,4.654
2024-03-17T04:02:45.089Z,4.654
2024-03-17T04:03:45.092Z,4.626
2024-03-17T04:04:45.098Z,4.599
2024-03-17T04:05:45.124Z,4.571
2024-03-17T04:06:45.117Z,4.571
2024-03-17T04:07:45.131Z,4.599
2024-03-17T04:08:45.142Z,4.599
2024-03-17T04:09:45.149Z,4.581
2024-03-17T04:10:45.202Z,4.553
2024-03-17T04:11:45.170Z,4.553
2024-03-17T04:12:45.179Z,4.553
2024-03-17T04:13:45.191Z,4.553
2024-03-17T04:14:45.189Z,4.524
2024-03-17T04:15:45.200Z,4.524
2024-03-17T04:16:45.196Z,4.524
2024-03-17T04:17:45.216Z,4.524
2024-03-17T04:18:45.220Z,4.468
2024-03-17T04:19:45.253Z,4.405
2024-03-17T04:20:45.240Z,4.405
2024-03-17T04:21:46.109Z,4.405
2024-03-17T04:22:45.272Z,4.405
2024-03-17T04:23:45.271Z,4.405
2024-03-17T04:24:45.292Z,4.355
2024-03-17T04:25:45.296Z,4.355
2024-03-17T04:26:45.297Z,4.355
2024-03-17T04:27:45.305Z,4.355
2024-03-17T04:28:48.517Z,4.355
2024-03-17T04:29:45.304Z,4.355
2024-03-17T04:30:45.322Z,4.271
2024-03-17T04:31:45.333Z,4.271
2024-03-17T04:32:45.348Z,4.271
2024-03-17T04:33:45.367Z,4.271
2024-03-17T04:34:45.365Z,4.232
2024-03-17T04:35:45.376Z,4.232
2024-03-17T04:36:45.393Z,4.260
2024-03-17T04:37:45.402Z,4.232
2024-03-17T04:38:45.418Z,4.232
2024-03-17T04:39:45.414Z,4.309
2024-03-17T04:40:45.420Z,4.282
2024-03-17T04:41:45.406Z,4.282
2024-03-17T04:42:45.416Z,4.282
2024-03-17T04:43:45.432Z,4.282
2024-03-17T04:44:45.451Z,4.271
2024-03-17T04:45:45.455Z,4.271
2024-03-17T04:46:45.465Z,4.327
2024-03-17T04:47:45.493Z,4.327
2024-03-17T04:48:45.481Z,4.327
2024-03-17T04:49:45.487Z,4.287
2024-03-17T04:50:45.496Z,4.315
2024-03-17T04:51:45.493Z,4.315
2024-03-17T04:52:45.509Z,4.315
2024-03-17T04:53:45.504Z,4.315
2024-03-17T04:54:45.521Z,4.380
2024-03-17T04:55:45.537Z,4.380
2024-03-17T04:56:45.555Z,4.380
2024-03-17T04:57:45.561Z,4.380
2024-03-17T04:58:45.579Z,4.380
2024-03-17T04:59:45.592Z,4.430
2024-03-17T05:00:46.263Z,4.430
2024-03-17T05:01:45.606Z,4.430
2024-03-17T05:02:45.611Z,4.430
2024-03-17T05:03:45.618Z,4.430
2024-03-17T05:04:45.622Z,4.470
2024-03-17T05:05:45.624Z,4.470
2024-03-17T05:06:45.631Z,4.470
2024-03-17T05:07:45.635Z,4.553
2024-03-17T05:08:45.638Z,4.498
2024-03-17T05:09:45.654Z,4.563
2024-03-17T05:10:45.687Z,4.563
2024-03-17T05:11:45.674Z,4.563
2024-03-17T05:12:45.694Z,4.563
2024-03-17T05:13:45.706Z,4.535
2024-03-17T05:14:45.710Z,4.526
2024-03-17T05:15:45.736Z,4.526
2024-03-17T05:16:45.725Z,4.526
2024-03-17T05:17:45.733Z,4.553
2024-03-17T05:18:45.740Z,4.553
2024-03-17T05:19:45.739Z,4.543
2024-03-17T05:20:45.739Z,4.515
2024-03-17T05:21:45.753Z,4.543
2024-03-17T05:22:45.760Z,4.515
2024-03-17T05:23:45.779Z,4.515
2024-03-17T05:24:45.792Z,4.543
2024-03-17T05:25:45.800Z,4.515
2024-03-17T05:26:45.805Z,4.543
2024-03-17T05:27:45.819Z,4.543
2024-03-17T05:28:45.830Z,4.543
2024-03-17T05:29:45.845Z,4.498
2024-03-17T05:30:45.839Z,4.498
2024-03-17T05:31:45.846Z,4.498
2024-03-17T05:32:45.848Z,4.498
2024-03-17T05:33:45.843Z,4.498
2024-03-17T05:34:45.861Z,4.473
2024-03-17T05:35:45.876Z,4.473
2024-03-17T05:36:45.890Z,4.473
2024-03-17T05:37:45.903Z,4.473
2024-03-17T05:38:45.941Z,4.473
2024-03-17T05:39:45.926Z,4.463
2024-03-17T05:40:45.941Z,4.463
2024-03-17T05:41:45.950Z,4.463
2024-03-17T05:42:45.953Z,4.463
2024-03-17T05:43:45.986Z,4.463
2024-03-17T05:44:45.970Z,4.543
2024-03-17T05:45:45.971Z,4.515
2024-03-17T05:46:45.978Z,4.515
2024-03-17T05:47:45.985Z,4.543
2024-03-17T05:48:45.984Z,4.515
2024-03-17T05:49:45.997Z,4.616
2024-03-17T05:50:46.007Z,4.616
2024-03-17T05:51:46.012Z,4.644
2024-03-17T05:52:46.042Z,4.616
2024-03-17T05:53:46.040Z,4.644
2024-03-17T05:54:46.038Z,4.641
2024-03-17T05:55:46.054Z,4.641
2024-03-17T05:56:46.059Z,4.669
2024-03-17T05:57:46.077Z,4.641
2024-03-17T05:58:46.068Z,4.641
2024-03-17T05:59:46.075Z,4.716
2024-03-17T06:00:46.074Z,4.716
2024-03-17T06:01:46.093Z,4.716
2024-03-17T06:02:46.105Z,4.771
2024-03-17T06:03:46.136Z,4.800
2024-03-17T06:04:46.135Z,4.800
2024-03-17T06:05:46.143Z,4.771
2024-03-17T06:06:46.168Z,4.800
2024-03-17T06:07:46.159Z,4.800
2024-03-17T06:08:46.167Z,4.800
2024-03-17T06:09:46.174Z,4.840
2024-03-17T06:10:46.185Z,4.840
2024-03-17T06:11:46.199Z,4.895
2024-03-17T06:12:46.188Z,4.923
2024-03-17T06:13:46.191Z,4.923
2024-03-17T06:14:46.200Z,5.003
2024-03-17T06:15:46.214Z,5.003
2024-03-17T06:16:48.922Z,4.975
2024-03-17T06:17:46.242Z,4.975
2024-03-17T06:18:46.255Z,4.975
2024-03-17T06:19:46.269Z,4.975
2024-03-17T06:20:46.288Z,4.975
2024-03-17T06:21:46.293Z,5.030
2024-03-17T06:22:46.299Z,5.030
2024-03-17T06:23:46.306Z,5.030
2024-03-17T06:24:46.308Z,5.075
2024-03-17T06:25:46.320Z,5.104
2024-03-17T06:26:46.313Z,5.104
2024-03-17T06:27:46.331Z,5.075
2024-03-17T06:28:46.334Z,5.075
2024-03-17T06:29:46.355Z,5.141
2024-03-17T06:30:46.373Z,5.169
2024-03-17T06:31:46.380Z,5.169
2024-03-17T06:32:46.396Z,5.274
2024-03-17T06:33:46.397Z,5.274
2024-03-17T06:34:46.415Z,5.329
2024-03-17T06:35:46.412Z,5.357
2024-03-17T06:36:46.418Z,5.357
2024-03-17T06:37:46.433Z,5.354
2024-03-17T06:38:46.429Z,5.354
2024-03-17T06:39:46.454Z,5.382
2024-03-17T06:40:46.446Z,5.382
2024-03-17T06:41:46.448Z,5.410
2024-03-17T06:42:46.462Z,5.528
2024-03-17T06:43:46.474Z,5.528
2024-03-17T06:44:46.486Z,5.528
2024-03-17T06:45:46.500Z,5.528
2024-03-17T06:46:46.502Z,5.528
2024-03-17T06:47:46.509Z,5.623
2024-03-17T06:48:46.530Z,5.623
2024-03-17T06:49:46.526Z,5.623
2024-03-17T06:50:46.533Z,5.623
2024-03-17T06:51:46.543Z,5.623
2024-03-17T06:52:46.545Z,5.628
2024-03-17T06:53:46.558Z,5.712
2024-03-17T06:54:46.562Z,5.712
2024-03-17T06:55:48.091Z,5.684
2024-03-17T06:56:46.592Z,5.712
2024-03-17T06:57:46.600Z,5.767
2024-03-17T06:58:46.609Z,5.767
2024-03-17T06:59:46.624Z,5.767
2024-03-17T07:00:46.624Z,5.767
2024-03-17T07:01:46.630Z,5.822
2024-03-17T07:02:46.673Z,5.832
2024-03-17T07:03:46.681Z,5.832
2024-03-17T07:04:46.655Z,5.832
2024-03-17T07:05:46.661Z,5.832
2024-03-17T07:06:46.662Z,5.860
2024-03-17T07:07:46.690Z,5.875
2024-03-17T07:08:46.691Z,5.931
2024-03-17T07:09:46.714Z,5.931
2024-03-17T07:10:46.712Z,5.931
2024-03-17T07:11:46.717Z,5.931
2024-03-17T07:12:46.743Z,5.890
2024-03-17T07:13:46.738Z,5.890
2024-03-17T07:14:46.747Z,5.890
2024-03-17T07:15:46.757Z,5.890
2024-03-17T07:16:46.771Z,5.890
2024-03-17T07:17:46.764Z,5.941
2024-03-17T07:18:46.763Z,6.101
2024-03-17T07:19:46.773Z,6.101
2024-03-17T07:20:46.788Z,6.101
2024-03-17T07:21:46.824Z,6.101
2024-03-17T07:22:46.818Z,6.211
2024-03-17T07:23:46.830Z,6.392
2024-03-17T07:24:46.834Z,6.392
2024-03-17T07:25:48.023Z,6.392
2024-03-17T07:26:46.851Z,6.530
2024-03-17T07:27:46.865Z,6.585
2024-03-17T07:28:46.865Z,6.585
2024-03-17T07:29:46.867Z,6.695
2024-03-17T07:30:46.886Z,6.695
2024-03-17T07:31:46.881Z,6.723
2024-03-17T07:32:46.877Z,6.861
2024-03-17T07:33:46.894Z,6.861
2024-03-17T07:34:46.899Z,6.970
2024-03-17T07:35:46.938Z,6.970
2024-03-17T07:36:46.928Z,7.139
2024-03-17T07:37:46.939Z,7.166
2024-03-17T07:38:46.950Z,7.222
2024-03-17T07:39:46.985Z,7.337
2024-03-17T07:40:46.958Z,7.470
2024-03-17T07:41:46.974Z,7.525
2024-03-17T07:42:46.983Z,7.640
2024-03-17T07:43:46.993Z,7.696
2024-03-17T07:44:46.994Z,7.696
2024-03-17T07:45:46.984Z,7.779
2024-03-17T07:46:47.008Z,7.779
2024-03-17T07:47:47.010Z,7.772
2024-03-17T07:48:47.033Z,7.772
2024-03-17T07:49:47.036Z,7.657
2024-03-17T07:50:47.043Z,7.657
2024-03-17T07:51:47.047Z,7.657
2024-03-17T07:52:47.058Z,7.685
2024-03-17T07:53:47.077Z,7.685
2024-03-17T07:54:47.070Z,7.733
2024-03-17T07:55:47.074Z,7.733
2024-03-17T07:56:47.079Z,7.733
2024-03-17T07:57:47.080Z,7.733
2024-03-17T07:58:47.090Z,7.733
2024-03-17T07:59:47.099Z,7.801
2024-03-17T08:00:47.104Z,7.801
2024-03-17T08:01:47.126Z,7.856
2024-03-17T08:02:47.136Z,7.741
2024-03-17T08:03:47.144Z,7.741
2024-03-17T08:04:47.150Z,7.741
2024-03-17T08:05:47.164Z,7.636
2024-03-17T08:06:47.169Z,7.636
2024-03-17T08:07:49.389Z,7.636
2024-03-17T08:08:47.181Z,7.636
2024-03-17T08:09:47.182Z,7.636
2024-03-17T08:10:47.186Z,7.616
2024-03-17T08:11:47.187Z,7.616
2024-03-17T08:12:47.233Z,7.671
2024-03-17T08:13:47.216Z,7.671
2024-03-17T08:14:47.225Z,7.809
2024-03-17T08:15:47.242Z,7.809
2024-03-17T08:16:47.245Z,7.995
2024-03-17T08:17:47.313Z,7.967
2024-03-17T08:18:47.262Z,7.967
2024-03-17T08:19:47.268Z,8.050
2024-03-17T08:20:47.274Z,8.050
2024-03-17T08:21:47.289Z,8.091
2024-03-17T08:22:47.286Z,8.091
2024-03-17T08:23:47.284Z,8.091
2024-03-17T08:24:47.294Z,8.091
2024-03-17T08:25:47.312Z,8.091
2024-03-17T08:26:47.329Z,8.206
2024-03-17T08:27:47.333Z,8.206
2024-03-17T08:28:47.342Z,8.233
2024-03-17T08:29:47.359Z,8.369
2024-03-17T08:30:47.359Z,8.396
2024-03-17T08:31:47.365Z,8.396
2024-03-17T08:32:47.371Z,8.451
2024-03-17T08:33:47.380Z,8.451
2024-03-17T08:34:47.376Z,8.441
2024-03-17T08:35:47.403Z,8.326
2024-03-17T08:36:47.395Z,8.326
2024-03-17T08:37:47.392Z,8.216
2024-03-17T08:38:47.408Z,8.216
2024-03-17T08:39:47.422Z,8.216
2024-03-17T08:40:47.435Z,8.216
2024-03-17T08:41:47.437Z,8.272
2024-03-17T08:42:47.436Z,8.377
2024-03-17T08:43:47.443Z,8.405
2024-03-17T08:44:47.454Z,8.405
2024-03-17T08:45:52.872Z,8.405
2024-03-17T08:46:47.459Z,8.433
2024-03-17T08:47:47.470Z,8.508
2024-03-17T08:48:47.467Z,8.585
2024-03-17T08:49:47.483Z,8.613
2024-03-17T08:50:47.484Z,8.640
2024-03-17T08:51:47.495Z,8.774
2024-03-17T08:52:47.509Z,8.774
2024-03-17T08:53:47.516Z,8.745
2024-03-17T08:54:47.537Z,8.745
2024-03-17T08:55:47.536Z,8.774
2024-03-17T08:56:47.534Z,8.793
2024-03-17T08:57:47.553Z,8.684
2024-03-17T08:58:47.549Z,8.739
2024-03-17T08:59:47.566Z,8.684
2024-03-17T09:00:47.560Z,8.739
2024-03-17T09:01:47.573Z,8.739
2024-03-17T09:02:47.573Z,8.700
2024-03-17T09:03:47.600Z,8.729
2024-03-17T09:04:47.595Z,8.784
2024-03-17T09:05:47.604Z,8.784
2024-03-17T09:06:47.607Z,8.784
2024-03-17T09:07:47.611Z,8.796
2024-03-17T09:08:47.632Z,8.796
2024-03-17T09:09:47.631Z,8.977
2024-03-17T09:10:47.710Z,9.082
2024-03-17T09:11:47.645Z,9.055
2024-03-17T09:12:47.644Z,9.180
2024-03-17T09:13:47.646Z,9.368
2024-03-17T09:14:47.656Z,9.368
2024-03-17T09:15:47.661Z,9.368
2024-03-17T09:16:47.693Z,9.368
2024-03-17T09:17:47.707Z,9.368
2024-03-17T09:18:47.697Z,9.439
2024-03-17T09:19:47.706Z,9.439
2024-03-17T09:20:47.719Z,9.553
2024-03-17T09:21:47.733Z,9.553
2024-03-17T09:22:47.744Z,9.424
2024-03-17T09:23:47.743Z,9.424
2024-03-17T09:24:47.744Z,9.424
2024-03-17T09:25:47.744Z,9.424
2024-03-17T09:26:47.739Z,9.424
2024-03-17T09:27:47.755Z,9.537
2024-03-17T09:28:47.778Z,9.537
2024-03-17T09:29:47.774Z,9.537
2024-03-17T09:30:47.785Z,9.537
2024-03-17T09:31:47.812Z,9.564
2024-03-17T09:32:47.809Z,9.550
2024-03-17T09:33:47.816Z,9.550
2024-03-17T09:34:47.839Z,9.577
2024-03-17T09:35:47.835Z,9.577
2024-03-17T09:36:47.853Z,9.546
2024-03-17T09:37:47.851Z,9.546
2024-03-17T09:38:47.855Z,9.546
2024-03-17T09:39:47.895Z,9.436
2024-03-17T09:40:47.861Z,9.436
2024-03-17T09:41:47.874Z,9.325
2024-03-17T09:42:47.881Z,9.325
2024-03-17T09:43:47.904Z,9.445
2024-03-17T09:44:47.903Z,9.445
2024-03-17T09:45:47.936Z,9.566
2024-03-17T09:46:47.920Z,9.566
2024-03-17T09:47:47.929Z,9.671
2024-03-17T09:48:47.941Z,9.698
2024-03-17T09:49:47.945Z,9.726
2024-03-17T09:50:47.964Z,9.726
2024-03-17T09:51:47.955Z,9.726
2024-03-17T09:52:47.954Z,9.686
2024-03-17T09:53:47.960Z,9.549
2024-03-17T09:54:47.993Z,9.332
2024-03-17T09:55:47.992Z,9.332
2024-03-17T09:56:48.002Z,9.332
2024-03-17T09:57:48.016Z,9.249
2024-03-17T09:58:48.023Z,9.110
2024-03-17T09:59:48.062Z,9.047
2024-03-17T10:00:48.049Z,9.047
2024-03-17T10:01:48.048Z,9.096
2024-03-17T10:02:48.053Z,9.152
2024-03-17T10:03:48.053Z,9.295
2024-03-17T10:04:48.078Z,9.295
2024-03-17T10:05:48.062Z,9.323
2024-03-17T10:06:48.077Z,9.185
2024-03-17T10:07:48.078Z,9.185
2024-03-17T10:08:48.087Z,9.130
2024-03-17T10:09:48.101Z,9.130
2024-03-17T10:10:48.134Z,9.022
2024-03-17T10:11:48.111Z,8.939
2024-03-17T10:12:48.121Z,8.939
2024-03-17T10:13:48.138Z,9.074
2024-03-17T10:14:48.137Z,9.074
2024-03-17T10:15:48.147Z,9.194
2024-03-17T10:16:48.157Z,9.194
2024-03-17T10:17:48.148Z,9.277
2024-03-17T10:18:48.218Z,9.277
2024-03-17T10:19:55.625Z,9.194
2024-03-17T10:20:51.131Z,9.194
2024-03-17T10:21:48.191Z,9.194
2024-03-17T10:22:48.194Z,9.194
2024-03-17T10:23:48.208Z,9.194
2024-03-17T10:24:48.221Z,9.194
2024-03-17T10:25:49.020Z,9.199
2024-03-17T10:26:48.234Z,9.199
2024-03-17T10:27:48.261Z,9.199
2024-03-17T10:28:48.245Z,9.282
2024-03-17T10:29:48.249Z,9.172
2024-03-17T10:30:48.266Z,9.089
2024-03-17T10:31:48.275Z,9.089
2024-03-17T10:32:48.296Z,9.117
2024-03-17T10:33:57.769Z,9.117
2024-03-17T10:34:48.297Z,9.136
2024-03-17T10:35:48.303Z,9.136
2024-03-17T10:36:48.343Z,9.136
2024-03-17T10:37:48.309Z,8.999
2024-03-17T10:38:48.334Z,8.944
2024-03-17T10:39:48.328Z,8.999
2024-03-17T10:40:48.335Z,8.999
2024-03-17T10:41:48.354Z,9.129
2024-03-17T10:42:48.346Z,9.129
2024-03-17T10:43:48.357Z,9.129
2024-03-17T10:44:48.389Z,9.129
2024-03-17T10:45:48.373Z,9.239
2024-03-17T10:46:51.982Z,9.239
2024-03-17T10:47:48.386Z,9.267
2024-03-17T10:48:48.392Z,9.322
2024-03-17T10:49:48.403Z,9.322
2024-03-17T10:50:48.416Z,9.252
2024-03-17T10:51:48.421Z,9.252
2024-03-17T10:52:52.069Z,9.252
2024-03-17T10:53:48.414Z,9.308
2024-03-17T10:54:48.416Z,9.308
2024-03-17T10:55:48.439Z,9.343
2024-03-17T10:56:48.450Z,9.315
2024-03-17T10:57:48.452Z,9.399
2024-03-17T10:58:48.458Z,9.518
2024-03-17T10:59:48.462Z,9.518
2024-03-17T11:00:48.504Z,9.518
2024-03-17T11:01:48.476Z,9.518
2024-03-17T11:02:48.484Z,9.518
2024-03-17T11:03:48.480Z,9.553
2024-03-17T11:04:48.484Z,9.739
2024-03-17T11:05:48.488Z,9.767
2024-03-17T11:06:48.507Z,9.739
2024-03-17T11:07:48.503Z,9.849
2024-03-17T11:08:48.513Z,9.932
2024-03-17T11:09:48.518Z,9.932
2024-03-17T11:10:48.530Z,9.960
2024-03-17T11:11:48.538Z,9.876
2024-03-17T11:12:48.547Z,9.876
2024-03-17T11:13:48.567Z,9.876
2024-03-17T11:14:48.557Z,9.710
2024-03-17T11:15:48.584Z,9.682
2024-03-17T11:16:48.579Z,9.682
2024-03-17T11:17:48.585Z,9.682
2024-03-17T11:18:48.593Z,9.682
2024-03-17T11:19:48.596Z,9.712
2024-03-17T11:20:48.600Z,9.592
2024-03-17T11:21:48.604Z,9.487
2024-03-17T11:22:48.615Z,9.487
2024-03-17T11:23:48.629Z,9.592
2024-03-17T11:24:48.638Z,9.592
2024-03-17T11:25:48.644Z,9.697
2024-03-17T11:26:48.648Z,9.697
2024-03-17T11:27:48.666Z,9.697
2024-03-17T11:28:48.659Z,9.697
2024-03-17T11:29:48.673Z,9.780
2024-03-17T11:30:48.662Z,9.780
2024-03-17T11:31:48.668Z,9.780
2024-03-17T11:32:48.686Z,9.605
2024-03-17T11:33:48.684Z,9.577
2024-03-17T11:34:48.691Z,9.494
2024-03-17T11:35:48.700Z,9.494
2024-03-17T11:36:48.712Z,9.379
2024-03-17T11:37:48.718Z,9.407
2024-03-17T11:38:48.730Z,9.407
2024-03-17T11:39:48.732Z,9.407
2024-03-17T11:40:48.746Z,9.407
2024-03-17T11:41:48.774Z,9.354
2024-03-17T11:42:48.748Z,9.299
2024-03-17T11:43:48.750Z,9.299
2024-03-17T11:44:48.757Z,9.454
2024-03-17T11:45:48.781Z,9.454
2024-03-17T11:47:01.232Z,9.564
2024-03-17T11:47:48.790Z,9.564
2024-03-17T11:48:48.799Z,9.564
2024-03-17T11:49:48.806Z,9.619
2024-03-17T11:50:48.816Z,9.752
2024-03-17T11:51:48.813Z,9.779
2024-03-17T11:52:48.820Z,9.807
2024-03-17T11:53:48.831Z,9.807
2024-03-17T11:54:48.842Z,9.702
2024-03-17T11:55:48.852Z,9.702
2024-03-17T11:56:48.843Z,9.702
2024-03-17T11:57:48.849Z,9.702
2024-03-17T11:58:48.883Z,9.702
2024-03-17T11:59:48.902Z,9.627
2024-03-17T12:00:48.890Z,9.627
2024-03-17T12:01:48.905Z,9.627
2024-03-17T12:03:00.114Z,9.627
2024-03-17T12:03:48.907Z,9.544
2024-03-17T12:04:48.920Z,9.552
2024-03-17T12:05:48.929Z,9.552
2024-03-17T12:06:48.937Z,9.552
2024-03-17T12:07:49.943Z,9.552
2024-03-17T12:08:48.942Z,9.468
2024-03-17T12:09:48.951Z,9.503
2024-03-17T12:10:48.954Z,9.503
2024-03-17T12:11:48.980Z,9.503
2024-03-17T12:12:48.974Z,9.503
2024-03-17T12:13:48.985Z,9.503
2024-03-17T12:14:49.011Z,9.552
2024-03-17T12:15:49.005Z,9.552
2024-03-17T12:16:49.007Z,9.447
2024-03-17T12:17:49.014Z,9.447
2024-03-17T12:18:49.020Z,9.364
2024-03-17T12:19:49.028Z,9.364
2024-03-17T12:20:49.029Z,9.364
2024-03-17T12:21:49.035Z,9.497
2024-03-17T12:22:49.040Z,9.497
2024-03-17T12:23:49.054Z,9.611
2024-03-17T12:24:49.052Z,9.782
2024-03-17T12:25:49.066Z,9.947
2024-03-17T12:26:49.078Z,10.03
2024-03-17T12:27:49.096Z,10.15
2024-03-17T12:28:49.109Z,10.21
2024-03-17T12:29:49.103Z,10.21
2024-03-17T12:30:49.116Z,10.21
2024-03-17T12:31:49.119Z,10.10
2024-03-17T12:32:49.123Z,10.10
2024-03-17T12:33:49.126Z,9.986
2024-03-17T12:34:49.134Z,9.986
2024-03-17T12:35:49.141Z,9.851
2024-03-17T12:36:52.032Z,9.851
2024-03-17T12:37:49.175Z,9.851
2024-03-17T12:38:49.166Z,9.971
2024-03-17T12:39:49.176Z,9.944
2024-03-17T12:40:49.194Z,9.916
2024-03-17T12:41:49.208Z,9.971
2024-03-17T12:42:49.218Z,9.971
2024-03-17T12:43:49.221Z,9.926
2024-03-17T12:44:49.230Z,9.870
2024-03-17T12:45:49.232Z,9.870
2024-03-17T12:46:49.235Z,9.899
2024-03-17T12:47:49.248Z,9.899
2024-03-17T12:48:49.247Z,9.838
2024-03-17T12:49:49.251Z,9.838
2024-03-17T12:50:49.268Z,9.866
2024-03-17T12:51:49.288Z,9.761
2024-03-17T12:52:49.289Z,9.761